sensor_id;sensor_type;location;lat;lon;timestamp;P1;durP1;ratioP1;P2;durP2;ratioP2
80677;SDS011;70042;52.494;5.502;2023-11-19T00:01:45;6.97;;;3.33;;
80677;SDS011;70042;52.494;5.502;2023-11-19T00:04:12;7.45;;;3.38;;
80677;SDS011;70042;52.494;5.502;2023-11-19T00:06:37;6.78;;;2.88;;
80677;SDS011;70042;52.494;5.502;2023-11-19T00:09:03;7.60;;;3.38;;
80677;SDS011;70042;52.494;5.502;2023-11-19T00:11:29;5.75;;;3.47;;
80677;SDS011;70042;52.494;5.502;2023-11-19T00:13:54;5.88;;;3.20;;
80677;SDS011;70042;52.494;5.502;2023-11-19T00:16:20;5.60;;;2.88;;
80677;SDS011;70042;52.494;5.502;2023-11-19T00:18:45;4.95;;;2.92;;
80677;SDS011;70042;52.494;5.502;2023-11-19T00:23:36;5.60;;;3.23;;
80677;SDS011;70042;52.494;5.502;2023-11-19T00:26:02;4.65;;;2.88;;
80677;SDS011;70042;52.494;5.502;2023-11-19T00:28:27;7.30;;;3.05;;
80677;SDS011;70042;52.494;5.502;2023-11-19T00:30:53;5.65;;;3.08;;
80677;SDS011;70042;52.494;5.502;2023-11-19T00:33:19;7.43;;;2.78;;
80677;SDS011;70042;52.494;5.502;2023-11-19T00:35:44;6.90;;;2.92;;
80677;SDS011;70042;52.494;5.502;2023-11-19T00:38:10;5.43;;;3.05;;
80677;SDS011;70042;52.494;5.502;2023-11-19T00:40:35;7.45;;;3.20;;
80677;SDS011;70042;52.494;5.502;2023-11-19T00:43:01;7.05;;;2.80;;
80677;SDS011;70042;52.494;5.502;2023-11-19T00:45:26;6.75;;;3.10;;
80677;SDS011;70042;52.494;5.502;2023-11-19T00:47:52;5.78;;;2.75;;
80677;SDS011;70042;52.494;5.502;2023-11-19T00:50:17;8.45;;;3.33;;
80677;SDS011;70042;52.494;5.502;2023-11-19T00:52:43;6.18;;;2.78;;
80677;SDS011;70042;52.494;5.502;2023-11-19T00:55:08;6.20;;;2.88;;
80677;SDS011;70042;52.494;5.502;2023-11-19T00:57:33;6.78;;;2.78;;
80677;SDS011;70042;52.494;5.502;2023-11-19T00:59:59;6.55;;;2.80;;
80677;SDS011;70042;52.494;5.502;2023-11-19T01:02:25;9.82;;;3.40;;
80677;SDS011;70042;52.494;5.502;2023-11-19T01:04:50;6.65;;;2.58;;
80677;SDS011;70042;52.494;5.502;2023-11-19T01:07:16;5.07;;;2.75;;
80677;SDS011;70042;52.494;5.502;2023-11-19T01:09:42;6.50;;;3.13;;
80677;SDS011;70042;52.494;5.502;2023-11-19T01:12:07;7.05;;;2.83;;
80677;SDS011;70042;52.494;5.502;2023-11-19T01:14:34;5.88;;;2.85;;
80677;SDS011;70042;52.494;5.502;2023-11-19T01:19:26;6.50;;;2.75;;
80677;SDS011;70042;52.494;5.502;2023-11-19T01:21:53;5.53;;;2.67;;
80677;SDS011;70042;52.494;5.502;2023-11-19T01:24:19;4.90;;;2.20;;
80677;SDS011;70042;52.494;5.502;2023-11-19T01:26:44;5.95;;;2.80;;
80677;SDS011;70042;52.494;5.502;2023-11-19T01:29:13;8.43;;;2.75;;
80677;SDS011;70042;52.494;5.502;2023-11-19T01:31:40;4.93;;;2.33;;
80677;SDS011;70042;52.494;5.502;2023-11-19T01:34:06;4.38;;;2.30;;
80677;SDS011;70042;52.494;5.502;2023-11-19T01:36:32;5.70;;;2.58;;
80677;SDS011;70042;52.494;5.502;2023-11-19T01:38:57;5.10;;;2.50;;
80677;SDS011;70042;52.494;5.502;2023-11-19T01:41:22;4.90;;;2.65;;
80677;SDS011;70042;52.494;5.502;2023-11-19T01:43:49;4.28;;;2.22;;
80677;SDS011;70042;52.494;5.502;2023-11-19T01:46:15;7.10;;;2.33;;
80677;SDS011;70042;52.494;5.502;2023-11-19T01:48:41;5.18;;;2.50;;
80677;SDS011;70042;52.494;5.502;2023-11-19T01:51:11;5.22;;;2.35;;
80677;SDS011;70042;52.494;5.502;2023-11-19T01:53:38;5.63;;;2.22;;
80677;SDS011;70042;52.494;5.502;2023-11-19T01:56:06;5.60;;;2.45;;
80677;SDS011;70042;52.494;5.502;2023-11-19T01:58:35;5.88;;;2.40;;
80677;SDS011;70042;52.494;5.502;2023-11-19T02:01:01;4.50;;;2.60;;
80677;SDS011;70042;52.494;5.502;2023-11-19T02:03:29;3.65;;;2.22;;
80677;SDS011;70042;52.494;5.502;2023-11-19T02:05:57;6.32;;;2.50;;
80677;SDS011;70042;52.494;5.502;2023-11-19T02:08:23;9.23;;;2.88;;
80677;SDS011;70042;52.494;5.502;2023-11-19T02:10:49;7.10;;;2.47;;
80677;SDS011;70042;52.494;5.502;2023-11-19T02:13:14;5.53;;;2.70;;
80677;SDS011;70042;52.494;5.502;2023-11-19T02:15:41;4.95;;;2.13;;
80677;SDS011;70042;52.494;5.502;2023-11-19T02:20:44;5.90;;;2.80;;
80677;SDS011;70042;52.494;5.502;2023-11-19T02:23:11;6.55;;;2.50;;
80677;SDS011;70042;52.494;5.502;2023-11-19T02:25:38;5.45;;;2.45;;
80677;SDS011;70042;52.494;5.502;2023-11-19T02:28:05;6.38;;;2.13;;
80677;SDS011;70042;52.494;5.502;2023-11-19T02:30:31;5.55;;;2.17;;
80677;SDS011;70042;52.494;5.502;2023-11-19T02:32:57;5.05;;;2.13;;
80677;SDS011;70042;52.494;5.502;2023-11-19T02:35:30;5.60;;;2.63;;
80677;SDS011;70042;52.494;5.502;2023-11-19T02:37:57;5.00;;;1.88;;
80677;SDS011;70042;52.494;5.502;2023-11-19T02:40:28;6.60;;;1.70;;
80677;SDS011;70042;52.494;5.502;2023-11-19T02:42:54;5.15;;;2.17;;
80677;SDS011;70042;52.494;5.502;2023-11-19T02:45:24;5.18;;;1.83;;
80677;SDS011;70042;52.494;5.502;2023-11-19T02:47:50;5.45;;;2.00;;
80677;SDS011;70042;52.494;5.502;2023-11-19T02:52:42;6.65;;;2.20;;
80677;SDS011;70042;52.494;5.502;2023-11-19T02:55:08;4.68;;;1.83;;
80677;SDS011;70042;52.494;5.502;2023-11-19T02:57:37;5.30;;;2.20;;
80677;SDS011;70042;52.494;5.502;2023-11-19T03:02:39;6.22;;;2.00;;
80677;SDS011;70042;52.494;5.502;2023-11-19T03:05:10;6.90;;;2.08;;
80677;SDS011;70042;52.494;5.502;2023-11-19T03:07:37;6.72;;;2.20;;
80677;SDS011;70042;52.494;5.502;2023-11-19T03:10:02;5.25;;;2.05;;
80677;SDS011;70042;52.494;5.502;2023-11-19T03:12:30;6.30;;;1.98;;
80677;SDS011;70042;52.494;5.502;2023-11-19T03:14:57;5.93;;;2.03;;
80677;SDS011;70042;52.494;5.502;2023-11-19T03:17:22;5.20;;;2.33;;
80677;SDS011;70042;52.494;5.502;2023-11-19T03:19:49;4.78;;;2.08;;
80677;SDS011;70042;52.494;5.502;2023-11-19T03:22:14;5.35;;;2.15;;
80677;SDS011;70042;52.494;5.502;2023-11-19T03:24:40;3.70;;;1.40;;
80677;SDS011;70042;52.494;5.502;2023-11-19T03:27:05;8.05;;;2.33;;
80677;SDS011;70042;52.494;5.502;2023-11-19T03:29:30;4.38;;;2.10;;
80677;SDS011;70042;52.494;5.502;2023-11-19T03:31:56;5.63;;;1.88;;
80677;SDS011;70042;52.494;5.502;2023-11-19T03:34:22;7.15;;;2.30;;
80677;SDS011;70042;52.494;5.502;2023-11-19T03:36:48;5.32;;;1.88;;
80677;SDS011;70042;52.494;5.502;2023-11-19T03:39:14;7.43;;;1.83;;
80677;SDS011;70042;52.494;5.502;2023-11-19T03:41:39;5.90;;;2.63;;
80677;SDS011;70042;52.494;5.502;2023-11-19T03:44:04;6.50;;;1.95;;
80677;SDS011;70042;52.494;5.502;2023-11-19T03:46:30;8.27;;;2.08;;
80677;SDS011;70042;52.494;5.502;2023-11-19T03:48:55;6.55;;;2.00;;
80677;SDS011;70042;52.494;5.502;2023-11-19T03:51:21;5.53;;;1.90;;
80677;SDS011;70042;52.494;5.502;2023-11-19T03:53:47;6.95;;;1.92;;
80677;SDS011;70042;52.494;5.502;2023-11-19T03:56:12;6.45;;;1.88;;
80677;SDS011;70042;52.494;5.502;2023-11-19T03:58:38;5.53;;;2.05;;
80677;SDS011;70042;52.494;5.502;2023-11-19T04:01:13;6.95;;;1.85;;
80677;SDS011;70042;52.494;5.502;2023-11-19T04:03:39;7.57;;;2.15;;
80677;SDS011;70042;52.494;5.502;2023-11-19T04:06:04;8.90;;;2.20;;
80677;SDS011;70042;52.494;5.502;2023-11-19T04:08:30;6.97;;;1.88;;
80677;SDS011;70042;52.494;5.502;2023-11-19T04:10:55;10.35;;;2.00;;
80677;SDS011;70042;52.494;5.502;2023-11-19T04:13:21;7.95;;;2.10;;
80677;SDS011;70042;52.494;5.502;2023-11-19T04:15:47;7.93;;;2.58;;
80677;SDS011;70042;52.494;5.502;2023-11-19T04:18:14;7.35;;;1.77;;
80677;SDS011;70042;52.494;5.502;2023-11-19T04:20:39;8.35;;;2.10;;
80677;SDS011;70042;52.494;5.502;2023-11-19T04:23:07;6.25;;;1.98;;
80677;SDS011;70042;52.494;5.502;2023-11-19T04:25:33;7.43;;;2.17;;
80677;SDS011;70042;52.494;5.502;2023-11-19T04:27:58;6.47;;;1.92;;
80677;SDS011;70042;52.494;5.502;2023-11-19T04:30:24;7.63;;;2.30;;
80677;SDS011;70042;52.494;5.502;2023-11-19T04:35:14;9.17;;;2.30;;
80677;SDS011;70042;52.494;5.502;2023-11-19T04:37:41;6.53;;;2.03;;
80677;SDS011;70042;52.494;5.502;2023-11-19T04:40:07;5.90;;;1.58;;
80677;SDS011;70042;52.494;5.502;2023-11-19T04:42:32;8.18;;;2.78;;
80677;SDS011;70042;52.494;5.502;2023-11-19T04:44:58;7.63;;;2.42;;
80677;SDS011;70042;52.494;5.502;2023-11-19T04:47:23;6.28;;;1.85;;
80677;SDS011;70042;52.494;5.502;2023-11-19T04:49:49;7.00;;;1.92;;
80677;SDS011;70042;52.494;5.502;2023-11-19T04:52:14;8.18;;;2.33;;
80677;SDS011;70042;52.494;5.502;2023-11-19T04:54:43;5.50;;;1.88;;
80677;SDS011;70042;52.494;5.502;2023-11-19T04:57:08;8.60;;;2.60;;
80677;SDS011;70042;52.494;5.502;2023-11-19T04:59:37;6.00;;;1.75;;
80677;SDS011;70042;52.494;5.502;2023-11-19T05:02:03;6.05;;;1.92;;
80677;SDS011;70042;52.494;5.502;2023-11-19T05:04:29;6.95;;;1.95;;
80677;SDS011;70042;52.494;5.502;2023-11-19T05:06:54;7.60;;;2.08;;
80677;SDS011;70042;52.494;5.502;2023-11-19T05:09:20;8.85;;;2.13;;
80677;SDS011;70042;52.494;5.502;2023-11-19T05:11:45;6.80;;;1.88;;
80677;SDS011;70042;52.494;5.502;2023-11-19T05:14:11;6.45;;;1.80;;
80677;SDS011;70042;52.494;5.502;2023-11-19T05:16:39;4.32;;;1.83;;
80677;SDS011;70042;52.494;5.502;2023-11-19T05:19:04;6.30;;;2.20;;
80677;SDS011;70042;52.494;5.502;2023-11-19T05:21:30;8.30;;;2.13;;
80677;SDS011;70042;52.494;5.502;2023-11-19T05:23:55;6.88;;;1.80;;
80677;SDS011;70042;52.494;5.502;2023-11-19T05:26:22;10.00;;;2.45;;
80677;SDS011;70042;52.494;5.502;2023-11-19T05:28:49;8.68;;;2.22;;
80677;SDS011;70042;52.494;5.502;2023-11-19T05:31:15;4.90;;;1.55;;
80677;SDS011;70042;52.494;5.502;2023-11-19T05:33:42;9.05;;;2.50;;
80677;SDS011;70042;52.494;5.502;2023-11-19T05:36:07;5.15;;;1.40;;
80677;SDS011;70042;52.494;5.502;2023-11-19T05:38:36;6.47;;;1.83;;
80677;SDS011;70042;52.494;5.502;2023-11-19T05:41:02;7.70;;;2.40;;
80677;SDS011;70042;52.494;5.502;2023-11-19T05:43:28;6.35;;;2.10;;
80677;SDS011;70042;52.494;5.502;2023-11-19T05:45:53;9.32;;;2.17;;
80677;SDS011;70042;52.494;5.502;2023-11-19T05:48:18;6.70;;;1.73;;
80677;SDS011;70042;52.494;5.502;2023-11-19T05:50:44;6.75;;;1.92;;
80677;SDS011;70042;52.494;5.502;2023-11-19T05:53:09;7.97;;;2.15;;
80677;SDS011;70042;52.494;5.502;2023-11-19T05:55:38;8.20;;;2.00;;
80677;SDS011;70042;52.494;5.502;2023-11-19T05:58:11;7.93;;;1.90;;
80677;SDS011;70042;52.494;5.502;2023-11-19T06:00:40;8.82;;;2.00;;
80677;SDS011;70042;52.494;5.502;2023-11-19T06:03:07;6.60;;;2.20;;
80677;SDS011;70042;52.494;5.502;2023-11-19T06:05:32;9.27;;;2.42;;
80677;SDS011;70042;52.494;5.502;2023-11-19T06:07:58;8.18;;;2.00;;
80677;SDS011;70042;52.494;5.502;2023-11-19T06:10:23;7.25;;;2.45;;
80677;SDS011;70042;52.494;5.502;2023-11-19T06:15:27;4.70;;;1.60;;
80677;SDS011;70042;52.494;5.502;2023-11-19T06:17:53;6.85;;;2.47;;
80677;SDS011;70042;52.494;5.502;2023-11-19T06:20:19;5.78;;;1.60;;
80677;SDS011;70042;52.494;5.502;2023-11-19T06:22:45;5.35;;;1.88;;
80677;SDS011;70042;52.494;5.502;2023-11-19T06:25:11;6.63;;;2.10;;
80677;SDS011;70042;52.494;5.502;2023-11-19T06:27:37;6.63;;;1.55;;
80677;SDS011;70042;52.494;5.502;2023-11-19T06:30:03;11.05;;;2.50;;
80677;SDS011;70042;52.494;5.502;2023-11-19T06:32:28;9.63;;;2.92;;
80677;SDS011;70042;52.494;5.502;2023-11-19T06:34:54;7.70;;;2.55;;
80677;SDS011;70042;52.494;5.502;2023-11-19T06:37:19;6.20;;;2.25;;
80677;SDS011;70042;52.494;5.502;2023-11-19T06:39:44;10.15;;;2.05;;
80677;SDS011;70042;52.494;5.502;2023-11-19T06:42:10;10.30;;;2.78;;
80677;SDS011;70042;52.494;5.502;2023-11-19T06:44:36;9.13;;;2.30;;
80677;SDS011;70042;52.494;5.502;2023-11-19T06:47:01;8.98;;;1.95;;
80677;SDS011;70042;52.494;5.502;2023-11-19T06:49:27;5.93;;;1.90;;
80677;SDS011;70042;52.494;5.502;2023-11-19T06:51:55;7.65;;;1.83;;
80677;SDS011;70042;52.494;5.502;2023-11-19T06:54:21;7.90;;;2.38;;
80677;SDS011;70042;52.494;5.502;2023-11-19T06:56:47;6.25;;;2.10;;
80677;SDS011;70042;52.494;5.502;2023-11-19T06:59:13;6.60;;;2.25;;
80677;SDS011;70042;52.494;5.502;2023-11-19T07:01:41;8.10;;;2.13;;
80677;SDS011;70042;52.494;5.502;2023-11-19T07:04:10;7.93;;;2.15;;
80677;SDS011;70042;52.494;5.502;2023-11-19T07:06:37;8.00;;;2.08;;
80677;SDS011;70042;52.494;5.502;2023-11-19T07:09:04;5.63;;;1.90;;
80677;SDS011;70042;52.494;5.502;2023-11-19T07:11:34;12.52;;;3.13;;
80677;SDS011;70042;52.494;5.502;2023-11-19T07:14:01;10.63;;;1.80;;
80677;SDS011;70042;52.494;5.502;2023-11-19T07:16:27;9.43;;;2.15;;
80677;SDS011;70042;52.494;5.502;2023-11-19T07:18:52;9.82;;;2.55;;
80677;SDS011;70042;52.494;5.502;2023-11-19T07:21:17;6.43;;;1.85;;
80677;SDS011;70042;52.494;5.502;2023-11-19T07:23:44;10.77;;;1.95;;
80677;SDS011;70042;52.494;5.502;2023-11-19T07:26:10;9.07;;;2.40;;
80677;SDS011;70042;52.494;5.502;2023-11-19T07:28:35;8.85;;;2.17;;
80677;SDS011;70042;52.494;5.502;2023-11-19T07:31:01;7.57;;;1.88;;
80677;SDS011;70042;52.494;5.502;2023-11-19T07:33:27;8.70;;;2.45;;
80677;SDS011;70042;52.494;5.502;2023-11-19T07:35:52;7.70;;;1.67;;
80677;SDS011;70042;52.494;5.502;2023-11-19T07:38:18;8.23;;;1.92;;
80677;SDS011;70042;52.494;5.502;2023-11-19T07:40:43;9.07;;;2.35;;
80677;SDS011;70042;52.494;5.502;2023-11-19T07:43:09;8.60;;;2.10;;
80677;SDS011;70042;52.494;5.502;2023-11-19T07:45:34;6.40;;;1.63;;
80677;SDS011;70042;52.494;5.502;2023-11-19T07:47:59;8.80;;;2.20;;
80677;SDS011;70042;52.494;5.502;2023-11-19T07:50:26;5.63;;;1.50;;
80677;SDS011;70042;52.494;5.502;2023-11-19T07:52:51;8.60;;;2.13;;
80677;SDS011;70042;52.494;5.502;2023-11-19T07:55:17;7.10;;;1.58;;
80677;SDS011;70042;52.494;5.502;2023-11-19T07:57:42;6.63;;;2.03;;
80677;SDS011;70042;52.494;5.502;2023-11-19T08:00:08;8.50;;;2.05;;
80677;SDS011;70042;52.494;5.502;2023-11-19T08:02:37;5.65;;;1.60;;
80677;SDS011;70042;52.494;5.502;2023-11-19T08:05:03;8.73;;;2.05;;
80677;SDS011;70042;52.494;5.502;2023-11-19T08:07:29;6.80;;;1.85;;
80677;SDS011;70042;52.494;5.502;2023-11-19T08:09:54;7.45;;;2.33;;
80677;SDS011;70042;52.494;5.502;2023-11-19T08:12:20;9.15;;;2.03;;
80677;SDS011;70042;52.494;5.502;2023-11-19T08:14:45;7.75;;;1.95;;
80677;SDS011;70042;52.494;5.502;2023-11-19T08:17:11;8.88;;;2.08;;
80677;SDS011;70042;52.494;5.502;2023-11-19T08:19:36;5.78;;;1.83;;
80677;SDS011;70042;52.494;5.502;2023-11-19T08:22:01;10.25;;;1.85;;
80677;SDS011;70042;52.494;5.502;2023-11-19T08:24:27;5.82;;;1.70;;
80677;SDS011;70042;52.494;5.502;2023-11-19T08:26:53;8.10;;;2.42;;
80677;SDS011;70042;52.494;5.502;2023-11-19T08:29:19;7.15;;;2.20;;
80677;SDS011;70042;52.494;5.502;2023-11-19T08:31:44;7.28;;;2.15;;
80677;SDS011;70042;52.494;5.502;2023-11-19T08:34:11;10.70;;;2.10;;
80677;SDS011;70042;52.494;5.502;2023-11-19T08:36:36;7.32;;;1.63;;
80677;SDS011;70042;52.494;5.502;2023-11-19T08:39:02;6.97;;;1.65;;
80677;SDS011;70042;52.494;5.502;2023-11-19T08:41:28;7.05;;;1.88;;
80677;SDS011;70042;52.494;5.502;2023-11-19T08:43:53;9.90;;;2.03;;
80677;SDS011;70042;52.494;5.502;2023-11-19T08:46:19;6.13;;;1.55;;
80677;SDS011;70042;52.494;5.502;2023-11-19T08:48:44;7.30;;;1.73;;
80677;SDS011;70042;52.494;5.502;2023-11-19T08:51:11;7.97;;;1.85;;
80677;SDS011;70042;52.494;5.502;2023-11-19T08:53:39;7.97;;;1.70;;
80677;SDS011;70042;52.494;5.502;2023-11-19T08:56:05;8.00;;;2.20;;
80677;SDS011;70042;52.494;5.502;2023-11-19T08:58:31;8.23;;;1.80;;
80677;SDS011;70042;52.494;5.502;2023-11-19T09:00:56;7.28;;;1.95;;
80677;SDS011;70042;52.494;5.502;2023-11-19T09:03:22;7.50;;;1.80;;
80677;SDS011;70042;52.494;5.502;2023-11-19T09:05:48;7.28;;;1.85;;
80677;SDS011;70042;52.494;5.502;2023-11-19T09:08:13;7.78;;;1.70;;
80677;SDS011;70042;52.494;5.502;2023-11-19T09:10:38;8.80;;;2.13;;
80677;SDS011;70042;52.494;5.502;2023-11-19T09:13:04;9.70;;;4.35;;
80677;SDS011;70042;52.494;5.502;2023-11-19T09:15:29;11.10;;;3.67;;
80677;SDS011;70042;52.494;5.502;2023-11-19T09:17:55;11.57;;;3.28;;
80677;SDS011;70042;52.494;5.502;2023-11-19T09:22:46;7.82;;;2.83;;
80677;SDS011;70042;52.494;5.502;2023-11-19T09:25:11;10.27;;;2.83;;
80677;SDS011;70042;52.494;5.502;2023-11-19T09:27:41;12.85;;;2.90;;
80677;SDS011;70042;52.494;5.502;2023-11-19T09:30:07;8.05;;;3.40;;
80677;SDS011;70042;52.494;5.502;2023-11-19T09:32:33;9.88;;;2.65;;
80677;SDS011;70042;52.494;5.502;2023-11-19T09:34:59;10.07;;;2.35;;
80677;SDS011;70042;52.494;5.502;2023-11-19T09:37:25;11.00;;;2.63;;
80677;SDS011;70042;52.494;5.502;2023-11-19T09:39:51;13.18;;;2.65;;
80677;SDS011;70042;52.494;5.502;2023-11-19T09:42:16;9.98;;;2.67;;
80677;SDS011;70042;52.494;5.502;2023-11-19T09:44:43;9.43;;;2.60;;
80677;SDS011;70042;52.494;5.502;2023-11-19T09:47:08;12.07;;;3.25;;
80677;SDS011;70042;52.494;5.502;2023-11-19T09:49:36;11.93;;;2.63;;
80677;SDS011;70042;52.494;5.502;2023-11-19T09:52:01;10.98;;;2.75;;
80677;SDS011;70042;52.494;5.502;2023-11-19T09:54:28;14.50;;;2.60;;
80677;SDS011;70042;52.494;5.502;2023-11-19T09:56:54;12.27;;;2.72;;
80677;SDS011;70042;52.494;5.502;2023-11-19T09:59:27;9.00;;;2.45;;
80677;SDS011;70042;52.494;5.502;2023-11-19T10:01:54;6.55;;;1.85;;
80677;SDS011;70042;52.494;5.502;2023-11-19T10:04:21;12.85;;;4.68;;
80677;SDS011;70042;52.494;5.502;2023-11-19T10:09:14;10.55;;;2.95;;
80677;SDS011;70042;52.494;5.502;2023-11-19T10:11:40;10.90;;;3.10;;
80677;SDS011;70042;52.494;5.502;2023-11-19T10:14:05;9.70;;;2.90;;
80677;SDS011;70042;52.494;5.502;2023-11-19T10:16:31;10.88;;;2.95;;
80677;SDS011;70042;52.494;5.502;2023-11-19T10:18:59;11.73;;;3.28;;
80677;SDS011;70042;52.494;5.502;2023-11-19T10:21:28;11.40;;;3.42;;
80677;SDS011;70042;52.494;5.502;2023-11-19T10:23:57;11.23;;;2.47;;
80677;SDS011;70042;52.494;5.502;2023-11-19T10:26:25;10.18;;;2.83;;
80677;SDS011;70042;52.494;5.502;2023-11-19T10:28:51;12.20;;;3.80;;
80677;SDS011;70042;52.494;5.502;2023-11-19T10:31:17;8.82;;;3.00;;
80677;SDS011;70042;52.494;5.502;2023-11-19T10:33:44;10.73;;;3.20;;
80677;SDS011;70042;52.494;5.502;2023-11-19T10:36:13;8.88;;;2.97;;
80677;SDS011;70042;52.494;5.502;2023-11-19T10:38:39;12.50;;;2.90;;
80677;SDS011;70042;52.494;5.502;2023-11-19T10:41:06;8.77;;;3.10;;
80677;SDS011;70042;52.494;5.502;2023-11-19T10:43:42;11.30;;;2.72;;
80677;SDS011;70042;52.494;5.502;2023-11-19T10:46:13;9.73;;;2.72;;
80677;SDS011;70042;52.494;5.502;2023-11-19T10:48:39;9.77;;;2.90;;
80677;SDS011;70042;52.494;5.502;2023-11-19T10:51:06;9.27;;;3.05;;
80677;SDS011;70042;52.494;5.502;2023-11-19T10:53:37;13.18;;;3.60;;
80677;SDS011;70042;52.494;5.502;2023-11-19T10:56:06;8.60;;;2.85;;
80677;SDS011;70042;52.494;5.502;2023-11-19T10:58:36;10.30;;;3.30;;
80677;SDS011;70042;52.494;5.502;2023-11-19T11:01:07;8.25;;;2.80;;
80677;SDS011;70042;52.494;5.502;2023-11-19T11:03:41;9.85;;;3.13;;
80677;SDS011;70042;52.494;5.502;2023-11-19T11:06:08;13.57;;;2.95;;
80677;SDS011;70042;52.494;5.502;2023-11-19T11:08:36;10.88;;;2.95;;
80677;SDS011;70042;52.494;5.502;2023-11-19T11:11:05;10.07;;;2.60;;
80677;SDS011;70042;52.494;5.502;2023-11-19T11:13:32;9.95;;;2.70;;
80677;SDS011;70042;52.494;5.502;2023-11-19T11:15:59;18.25;;;4.97;;
80677;SDS011;70042;52.494;5.502;2023-11-19T11:18:25;14.40;;;3.38;;
80677;SDS011;70042;52.494;5.502;2023-11-19T11:29:04;13.05;;;3.30;;
80677;SDS011;70042;52.494;5.502;2023-11-19T11:37:16;11.45;;;3.03;;
80677;SDS011;70042;52.494;5.502;2023-11-19T11:39:45;10.43;;;3.08;;
80677;SDS011;70042;52.494;5.502;2023-11-19T11:45:00;11.93;;;3.15;;
80677;SDS011;70042;52.494;5.502;2023-11-19T11:50:13;9.00;;;2.15;;
80677;SDS011;70042;52.494;5.502;2023-11-19T11:55:29;9.23;;;2.85;;
80677;SDS011;70042;52.494;5.502;2023-11-19T11:58:01;10.10;;;2.42;;
80677;SDS011;70042;52.494;5.502;2023-11-19T12:02:57;10.32;;;2.53;;
80677;SDS011;70042;52.494;5.502;2023-11-19T12:05:24;8.77;;;2.17;;
80677;SDS011;70042;52.494;5.502;2023-11-19T12:07:57;10.32;;;2.47;;
80677;SDS011;70042;52.494;5.502;2023-11-19T12:10:28;10.80;;;2.55;;
80677;SDS011;70042;52.494;5.502;2023-11-19T12:12:59;11.30;;;2.30;;
80677;SDS011;70042;52.494;5.502;2023-11-19T12:15:26;9.85;;;1.90;;
80677;SDS011;70042;52.494;5.502;2023-11-19T12:17:53;9.05;;;2.08;;
80677;SDS011;70042;52.494;5.502;2023-11-19T12:20:20;9.82;;;2.78;;
80677;SDS011;70042;52.494;5.502;2023-11-19T12:22:47;7.07;;;1.92;;
80677;SDS011;70042;52.494;5.502;2023-11-19T12:25:14;9.45;;;2.60;;
80677;SDS011;70042;52.494;5.502;2023-11-19T12:27:45;9.68;;;3.20;;
80677;SDS011;70042;52.494;5.502;2023-11-19T12:30:12;11.05;;;2.80;;
80677;SDS011;70042;52.494;5.502;2023-11-19T12:32:41;7.28;;;2.28;;
80677;SDS011;70042;52.494;5.502;2023-11-19T12:35:08;9.23;;;2.22;;
80677;SDS011;70042;52.494;5.502;2023-11-19T12:37:44;8.82;;;2.35;;
80677;SDS011;70042;52.494;5.502;2023-11-19T12:40:14;8.48;;;1.98;;
80677;SDS011;70042;52.494;5.502;2023-11-19T12:42:44;11.75;;;2.15;;
80677;SDS011;70042;52.494;5.502;2023-11-19T12:45:10;8.60;;;2.40;;
80677;SDS011;70042;52.494;5.502;2023-11-19T12:50:06;10.35;;;3.03;;
80677;SDS011;70042;52.494;5.502;2023-11-19T12:52:33;6.47;;;2.15;;
80677;SDS011;70042;52.494;5.502;2023-11-19T12:55:06;6.43;;;2.63;;
80677;SDS011;70042;52.494;5.502;2023-11-19T12:57:51;8.35;;;2.13;;
80677;SDS011;70042;52.494;5.502;2023-11-19T13:00:20;7.45;;;2.65;;
80677;SDS011;70042;52.494;5.502;2023-11-19T13:02:49;7.50;;;2.17;;
80677;SDS011;70042;52.494;5.502;2023-11-19T13:05:29;8.32;;;2.50;;
80677;SDS011;70042;52.494;5.502;2023-11-19T13:08:07;6.95;;;2.20;;
80677;SDS011;70042;52.494;5.502;2023-11-19T13:13:21;8.50;;;1.98;;
80677;SDS011;70042;52.494;5.502;2023-11-19T13:15:47;7.53;;;2.20;;
80677;SDS011;70042;52.494;5.502;2023-11-19T13:18:13;6.63;;;2.50;;
80677;SDS011;70042;52.494;5.502;2023-11-19T13:20:41;15.10;;;3.90;;
80677;SDS011;70042;52.494;5.502;2023-11-19T13:23:07;13.13;;;4.13;;
80677;SDS011;70042;52.494;5.502;2023-11-19T13:27:58;12.57;;;3.72;;
80677;SDS011;70042;52.494;5.502;2023-11-19T13:30:24;13.65;;;4.00;;
80677;SDS011;70042;52.494;5.502;2023-11-19T13:32:51;15.95;;;4.00;;
80677;SDS011;70042;52.494;5.502;2023-11-19T13:35:18;10.40;;;3.75;;
80677;SDS011;70042;52.494;5.502;2023-11-19T13:37:44;13.55;;;3.63;;
80677;SDS011;70042;52.494;5.502;2023-11-19T13:40:10;10.60;;;3.38;;
80677;SDS011;70042;52.494;5.502;2023-11-19T13:42:39;15.05;;;3.90;;
80677;SDS011;70042;52.494;5.502;2023-11-19T13:45:09;8.80;;;3.55;;
80677;SDS011;70042;52.494;5.502;2023-11-19T13:47:37;10.73;;;2.40;;
80677;SDS011;70042;52.494;5.502;2023-11-19T13:50:07;8.70;;;2.63;;
80677;SDS011;70042;52.494;5.502;2023-11-19T13:52:34;12.23;;;2.78;;
80677;SDS011;70042;52.494;5.502;2023-11-19T13:55:02;18.13;;;4.10;;
80677;SDS011;70042;52.494;5.502;2023-11-19T13:57:29;15.30;;;3.40;;
80677;SDS011;70042;52.494;5.502;2023-11-19T13:59:56;11.13;;;3.22;;
80677;SDS011;70042;52.494;5.502;2023-11-19T14:02:22;11.27;;;3.40;;
80677;SDS011;70042;52.494;5.502;2023-11-19T14:04:47;8.77;;;2.85;;
80677;SDS011;70042;52.494;5.502;2023-11-19T14:07:13;9.52;;;3.13;;
80677;SDS011;70042;52.494;5.502;2023-11-19T14:09:43;11.85;;;3.30;;
80677;SDS011;70042;52.494;5.502;2023-11-19T14:12:11;10.88;;;3.53;;
80677;SDS011;70042;52.494;5.502;2023-11-19T14:14:38;13.10;;;3.13;;
80677;SDS011;70042;52.494;5.502;2023-11-19T14:17:07;10.35;;;3.58;;
80677;SDS011;70042;52.494;5.502;2023-11-19T14:19:33;26.08;;;11.70;;
80677;SDS011;70042;52.494;5.502;2023-11-19T14:21:58;30.00;;;11.15;;
80677;SDS011;70042;52.494;5.502;2023-11-19T14:24:25;86.90;;;49.72;;
80677;SDS011;70042;52.494;5.502;2023-11-19T14:26:51;47.35;;;25.77;;
80677;SDS011;70042;52.494;5.502;2023-11-19T14:29:17;44.30;;;21.13;;
80677;SDS011;70042;52.494;5.502;2023-11-19T14:31:42;39.47;;;20.15;;
80677;SDS011;70042;52.494;5.502;2023-11-19T14:34:08;37.72;;;18.02;;
80677;SDS011;70042;52.494;5.502;2023-11-19T14:36:33;35.67;;;17.85;;
80677;SDS011;70042;52.494;5.502;2023-11-19T14:42:04;29.15;;;13.48;;
80677;SDS011;70042;52.494;5.502;2023-11-19T14:44:33;27.15;;;13.52;;
80677;SDS011;70042;52.494;5.502;2023-11-19T14:46:59;30.17;;;13.55;;
80677;SDS011;70042;52.494;5.502;2023-11-19T14:49:27;27.63;;;12.55;;
80677;SDS011;70042;52.494;5.502;2023-11-19T14:51:52;26.15;;;11.70;;
80677;SDS011;70042;52.494;5.502;2023-11-19T14:54:18;27.00;;;11.85;;
80677;SDS011;70042;52.494;5.502;2023-11-19T14:56:44;31.58;;;10.73;;
80677;SDS011;70042;52.494;5.502;2023-11-19T14:59:09;22.30;;;10.18;;
80677;SDS011;70042;52.494;5.502;2023-11-19T15:01:35;27.13;;;10.98;;
80677;SDS011;70042;52.494;5.502;2023-11-19T15:04:00;19.55;;;9.45;;
80677;SDS011;70042;52.494;5.502;2023-11-19T15:06:26;20.98;;;9.75;;
80677;SDS011;70042;52.494;5.502;2023-11-19T15:08:55;21.38;;;9.60;;
80677;SDS011;70042;52.494;5.502;2023-11-19T15:13:47;22.02;;;8.02;;
80677;SDS011;70042;52.494;5.502;2023-11-19T15:18:58;20.45;;;7.95;;
80677;SDS011;70042;52.494;5.502;2023-11-19T15:21:28;18.30;;;8.00;;
80677;SDS011;70042;52.494;5.502;2023-11-19T15:23:58;17.30;;;7.72;;
80677;SDS011;70042;52.494;5.502;2023-11-19T15:26:32;18.25;;;8.20;;
80677;SDS011;70042;52.494;5.502;2023-11-19T15:32:23;69.38;;;28.77;;
80677;SDS011;70042;52.494;5.502;2023-11-19T15:34:51;60.10;;;23.30;;
80677;SDS011;70042;52.494;5.502;2023-11-19T15:37:23;61.78;;;23.63;;
80677;SDS011;70042;52.494;5.502;2023-11-19T15:39:54;51.03;;;20.48;;
80677;SDS011;70042;52.494;5.502;2023-11-19T15:45:14;43.08;;;17.15;;
80677;SDS011;70042;52.494;5.502;2023-11-19T15:51:03;34.95;;;16.00;;
80677;SDS011;70042;52.494;5.502;2023-11-19T15:53:29;35.88;;;15.27;;